sensor_id;sensor_type;location;lat;lon;timestamp;temperature;humidity
43561;DHT22;32305;46.410;17.394;2023-02-05T00:00:54;19.30;29.30
43561;DHT22;32305;46.410;17.394;2023-02-05T00:03:21;19.30;29.30
43561;DHT22;32305;46.410;17.394;2023-02-05T00:05:49;19.20;29.30
43561;DHT22;32305;46.410;17.394;2023-02-05T00:08:16;19.30;29.30
43561;DHT22;32305;46.410;17.394;2023-02-05T00:10:49;19.30;29.30
43561;DHT22;32305;46.410;17.394;2023-02-05T00:13:17;19.30;29.30
43561;DHT22;32305;46.410;17.394;2023-02-05T00:15:44;19.30;29.30
43561;DHT22;32305;46.410;17.394;2023-02-05T00:18:11;19.30;29.30
43561;DHT22;32305;46.410;17.394;2023-02-05T00:20:38;19.30;29.30
43561;DHT22;32305;46.410;17.394;2023-02-05T00:23:06;19.30;29.40
43561;DHT22;32305;46.410;17.394;2023-02-05T00:25:33;19.20;29.70
43561;DHT22;32305;46.410;17.394;2023-02-05T00:28:00;19.30;29.40
43561;DHT22;32305;46.410;17.394;2023-02-05T00:30:27;19.30;29.30
43561;DHT22;32305;46.410;17.394;2023-02-05T00:32:55;19.30;29.40
43561;DHT22;32305;46.410;17.394;2023-02-05T00:35:22;19.30;29.30
43561;DHT22;32305;46.410;17.394;2023-02-05T00:37:49;19.20;29.30
43561;DHT22;32305;46.410;17.394;2023-02-05T00:40:17;19.20;29.40
43561;DHT22;32305;46.410;17.394;2023-02-05T00:42:44;19.20;29.40
43561;DHT22;32305;46.410;17.394;2023-02-05T00:45:11;19.20;29.40
43561;DHT22;32305;46.410;17.394;2023-02-05T00:47:38;19.20;29.40
43561;DHT22;32305;46.410;17.394;2023-02-05T00:50:05;19.30;29.40
43561;DHT22;32305;46.410;17.394;2023-02-05T00:52:32;19.30;29.40
43561;DHT22;32305;46.410;17.394;2023-02-05T00:55:00;19.30;29.40
43561;DHT22;32305;46.410;17.394;2023-02-05T00:57:27;19.30;29.40
43561;DHT22;32305;46.410;17.394;2023-02-05T00:59:54;19.20;29.40
43561;DHT22;32305;46.410;17.394;2023-02-05T01:02:23;19.30;29.40
43561;DHT22;32305;46.410;17.394;2023-02-05T01:04:51;19.30;29.50
43561;DHT22;32305;46.410;17.394;2023-02-05T01:07:19;19.30;29.50
43561;DHT22;32305;46.410;17.394;2023-02-05T01:09:46;19.30;29.90
43561;DHT22;32305;46.410;17.394;2023-02-05T01:12:14;19.30;29.50
43561;DHT22;32305;46.410;17.394;2023-02-05T01:14:41;19.30;29.50
43561;DHT22;32305;46.410;17.394;2023-02-05T01:17:08;19.30;29.50
43561;DHT22;32305;46.410;17.394;2023-02-05T01:19:36;19.30;29.50
43561;DHT22;32305;46.410;17.394;2023-02-05T01:22:04;19.20;29.50
43561;DHT22;32305;46.410;17.394;2023-02-05T01:24:31;19.20;29.50
43561;DHT22;32305;46.410;17.394;2023-02-05T01:26:58;19.20;29.50
43561;DHT22;32305;46.410;17.394;2023-02-05T01:29:26;19.20;29.50
43561;DHT22;32305;46.410;17.394;2023-02-05T01:31:55;19.20;29.50
43561;DHT22;32305;46.410;17.394;2023-02-05T01:34:22;19.20;29.50
43561;DHT22;32305;46.410;17.394;2023-02-05T01:36:49;19.20;29.50
43561;DHT22;32305;46.410;17.394;2023-02-05T01:39:16;19.20;29.50
43561;DHT22;32305;46.410;17.394;2023-02-05T01:41:43;19.20;29.50
43561;DHT22;32305;46.410;17.394;2023-02-05T01:44:15;19.20;29.50
43561;DHT22;32305;46.410;17.394;2023-02-05T01:46:48;19.20;29.50
43561;DHT22;32305;46.410;17.394;2023-02-05T01:49:22;19.20;29.50
43561;DHT22;32305;46.410;17.394;2023-02-05T01:51:51;19.20;29.50
43561;DHT22;32305;46.410;17.394;2023-02-05T01:54:20;19.20;29.50
43561;DHT22;32305;46.410;17.394;2023-02-05T01:56:52;19.20;29.60
43561;DHT22;32305;46.410;17.394;2023-02-05T01:59:25;19.20;29.50
43561;DHT22;32305;46.410;17.394;2023-02-05T02:01:54;19.20;29.60
43561;DHT22;32305;46.410;17.394;2023-02-05T02:04:42;19.20;29.50
43561;DHT22;32305;46.410;17.394;2023-02-05T02:07:12;19.20;29.50
43561;DHT22;32305;46.410;17.394;2023-02-05T02:09:42;19.20;29.60
43561;DHT22;32305;46.410;17.394;2023-02-05T02:12:12;19.20;29.60
43561;DHT22;32305;46.410;17.394;2023-02-05T02:14:41;19.20;29.60
43561;DHT22;32305;46.410;17.394;2023-02-05T02:17:12;19.20;29.60
43561;DHT22;32305;46.410;17.394;2023-02-05T02:19:52;19.20;29.60
43561;DHT22;32305;46.410;17.394;2023-02-05T02:22:56;19.20;29.60
43561;DHT22;32305;46.410;17.394;2023-02-05T02:28:37;19.20;29.60
43561;DHT22;32305;46.410;17.394;2023-02-05T02:31:23;19.10;29.60
43561;DHT22;32305;46.410;17.394;2023-02-05T02:34:12;19.10;29.60
43561;DHT22;32305;46.410;17.394;2023-02-05T02:36:54;19.10;29.60
43561;DHT22;32305;46.410;17.394;2023-02-05T02:39:39;19.10;29.60
43561;DHT22;32305;46.410;17.394;2023-02-05T02:42:28;19.10;29.60
43561;DHT22;32305;46.410;17.394;2023-02-05T02:44:59;19.10;29.60
43561;DHT22;32305;46.410;17.394;2023-02-05T02:47:55;19.10;29.60
43561;DHT22;32305;46.410;17.394;2023-02-05T02:50:29;19.10;29.60
43561;DHT22;32305;46.410;17.394;2023-02-05T02:53:14;19.10;29.60
43561;DHT22;32305;46.410;17.394;2023-02-05T02:55:43;19.10;29.60
43561;DHT22;32305;46.410;17.394;2023-02-05T02:58:17;19.10;29.60
43561;DHT22;32305;46.410;17.394;2023-02-05T03:00:47;19.10;29.60
43561;DHT22;32305;46.410;17.394;2023-02-05T03:03:16;19.10;29.70
43561;DHT22;32305;46.410;17.394;2023-02-05T03:05:47;19.10;29.70
43561;DHT22;32305;46.410;17.394;2023-02-05T03:08:24;19.10;29.70
43561;DHT22;32305;46.410;17.394;2023-02-05T03:11:03;19.10;29.60
43561;DHT22;32305;46.410;17.394;2023-02-05T03:13:32;19.10;29.60
43561;DHT22;32305;46.410;17.394;2023-02-05T03:16:00;19.10;29.70
43561;DHT22;32305;46.410;17.394;2023-02-05T03:18:28;19.10;29.70
43561;DHT22;32305;46.410;17.394;2023-02-05T03:21:00;19.10;29.70
43561;DHT22;32305;46.410;17.394;2023-02-05T03:23:29;19.10;29.70
43561;DHT22;32305;46.410;17.394;2023-02-05T03:25:57;19.10;29.70
43561;DHT22;32305;46.410;17.394;2023-02-05T03:28:24;19.10;29.70
43561;DHT22;32305;46.410;17.394;2023-02-05T03:31:13;19.10;29.70
43561;DHT22;32305;46.410;17.394;2023-02-05T03:34:01;19.10;29.70
43561;DHT22;32305;46.410;17.394;2023-02-05T03:36:54;19.10;29.70
43561;DHT22;32305;46.410;17.394;2023-02-05T03:40:01;19.10;29.70
43561;DHT22;32305;46.410;17.394;2023-02-05T03:42:46;19.10;29.80
43561;DHT22;32305;46.410;17.394;2023-02-05T03:45:27;19.10;29.80
43561;DHT22;32305;46.410;17.394;2023-02-05T03:48:28;19.10;29.80
43561;DHT22;32305;46.410;17.394;2023-02-05T03:51:15;19.10;29.80
43561;DHT22;32305;46.410;17.394;2023-02-05T03:54:03;19.10;29.80
43561;DHT22;32305;46.410;17.394;2023-02-05T03:56:42;19.10;29.80
43561;DHT22;32305;46.410;17.394;2023-02-05T03:59:11;19.10;29.80
43561;DHT22;32305;46.410;17.394;2023-02-05T04:01:39;19.10;29.80
43561;DHT22;32305;46.410;17.394;2023-02-05T04:04:07;19.10;29.80
43561;DHT22;32305;46.410;17.394;2023-02-05T04:06:34;19.10;29.80
43561;DHT22;32305;46.410;17.394;2023-02-05T04:09:01;19.00;29.80
43561;DHT22;32305;46.410;17.394;2023-02-05T04:11:28;19.00;29.80
43561;DHT22;32305;46.410;17.394;2023-02-05T04:13:55;19.00;29.80
43561;DHT22;32305;46.410;17.394;2023-02-05T04:16:22;19.00;29.80
43561;DHT22;32305;46.410;17.394;2023-02-05T04:18:50;19.00;29.80
43561;DHT22;32305;46.410;17.394;2023-02-05T04:21:17;19.00;29.80
43561;DHT22;32305;46.410;17.394;2023-02-05T04:23:44;19.00;29.80
43561;DHT22;32305;46.410;17.394;2023-02-05T04:26:11;19.00;29.80
43561;DHT22;32305;46.410;17.394;2023-02-05T04:28:38;19.00;29.80
43561;DHT22;32305;46.410;17.394;2023-02-05T04:31:06;19.00;29.80
43561;DHT22;32305;46.410;17.394;2023-02-05T04:33:34;19.00;29.80
43561;DHT22;32305;46.410;17.394;2023-02-05T04:36:01;19.00;29.80
43561;DHT22;32305;46.410;17.394;2023-02-05T04:38:28;19.00;29.80
43561;DHT22;32305;46.410;17.394;2023-02-05T04:40:55;19.00;29.80
43561;DHT22;32305;46.410;17.394;2023-02-05T04:43:23;19.00;29.80
43561;DHT22;32305;46.410;17.394;2023-02-05T04:45:50;19.10;29.90
43561;DHT22;32305;46.410;17.394;2023-02-05T04:48:17;19.00;29.90
43561;DHT22;32305;46.410;17.394;2023-02-05T04:50:47;19.00;29.80
43561;DHT22;32305;46.410;17.394;2023-02-05T04:53:14;19.00;29.80
43561;DHT22;32305;46.410;17.394;2023-02-05T04:55:41;19.00;29.90
43561;DHT22;32305;46.410;17.394;2023-02-05T04:58:08;19.00;29.90
43561;DHT22;32305;46.410;17.394;2023-02-05T05:00:35;19.00;29.90
43561;DHT22;32305;46.410;17.394;2023-02-05T05:03:02;19.00;29.80
43561;DHT22;32305;46.410;17.394;2023-02-05T05:05:30;19.00;29.90
43561;DHT22;32305;46.410;17.394;2023-02-05T05:07:58;19.00;29.90
43561;DHT22;32305;46.410;17.394;2023-02-05T05:10:25;19.00;29.90
43561;DHT22;32305;46.410;17.394;2023-02-05T05:12:53;19.00;29.90
43561;DHT22;32305;46.410;17.394;2023-02-05T05:15:20;19.00;29.90
43561;DHT22;32305;46.410;17.394;2023-02-05T05:17:47;19.00;29.90
43561;DHT22;32305;46.410;17.394;2023-02-05T05:20:14;19.00;29.90
43561;DHT22;32305;46.410;17.394;2023-02-05T05:22:41;19.00;29.90
43561;DHT22;32305;46.410;17.394;2023-02-05T05:25:08;19.00;29.90
43561;DHT22;32305;46.410;17.394;2023-02-05T05:27:35;19.00;29.90
43561;DHT22;32305;46.410;17.394;2023-02-05T05:30:02;19.00;29.90
43561;DHT22;32305;46.410;17.394;2023-02-05T05:32:30;19.00;29.90
43561;DHT22;32305;46.410;17.394;2023-02-05T05:34:57;19.00;29.90
43561;DHT22;32305;46.410;17.394;2023-02-05T05:37:24;19.00;29.90
43561;DHT22;32305;46.410;17.394;2023-02-05T05:39:51;19.00;29.60
43561;DHT22;32305;46.410;17.394;2023-02-05T05:42:38;18.90;29.50
43561;DHT22;32305;46.410;17.394;2023-02-05T05:45:25;18.90;29.40
43561;DHT22;32305;46.410;17.394;2023-02-05T05:47:52;18.90;29.40
43561;DHT22;32305;46.410;17.394;2023-02-05T05:50:19;18.90;29.50
43561;DHT22;32305;46.410;17.394;2023-02-05T05:52:46;18.80;29.40
43561;DHT22;32305;46.410;17.394;2023-02-05T05:55:13;18.80;29.90
43561;DHT22;32305;46.410;17.394;2023-02-05T05:57:41;18.80;29.40
43561;DHT22;32305;46.410;17.394;2023-02-05T06:00:08;18.80;29.50
43561;DHT22;32305;46.410;17.394;2023-02-05T06:02:39;18.80;29.50
43561;DHT22;32305;46.410;17.394;2023-02-05T06:05:07;18.80;29.50
43561;DHT22;32305;46.410;17.394;2023-02-05T06:07:34;18.90;29.50
43561;DHT22;32305;46.410;17.394;2023-02-05T06:10:01;18.90;29.50
43561;DHT22;32305;46.410;17.394;2023-02-05T06:12:28;18.90;29.50
43561;DHT22;32305;46.410;17.394;2023-02-05T06:14:55;18.90;29.50
43561;DHT22;32305;46.410;17.394;2023-02-05T06:17:23;18.90;29.50
43561;DHT22;32305;46.410;17.394;2023-02-05T06:19:50;18.90;29.40
43561;DHT22;32305;46.410;17.394;2023-02-05T06:22:17;19.00;29.40
43561;DHT22;32305;46.410;17.394;2023-02-05T06:24:44;19.00;29.40
43561;DHT22;32305;46.410;17.394;2023-02-05T06:27:11;19.00;29.40
43561;DHT22;32305;46.410;17.394;2023-02-05T06:29:38;19.00;29.30
43561;DHT22;32305;46.410;17.394;2023-02-05T06:32:05;19.10;29.30
43561;DHT22;32305;46.410;17.394;2023-02-05T06:34:33;19.10;29.30
43561;DHT22;32305;46.410;17.394;2023-02-05T06:37:00;19.10;29.20
43561;DHT22;32305;46.410;17.394;2023-02-05T06:39:27;19.20;29.20
43561;DHT22;32305;46.410;17.394;2023-02-05T06:41:54;19.20;29.20
43561;DHT22;32305;46.410;17.394;2023-02-05T06:44:21;19.20;29.60
43561;DHT22;32305;46.410;17.394;2023-02-05T06:46:50;19.20;29.10
43561;DHT22;32305;46.410;17.394;2023-02-05T06:49:17;19.30;29.10
43561;DHT22;32305;46.410;17.394;2023-02-05T06:51:44;19.30;29.00
43561;DHT22;32305;46.410;17.394;2023-02-05T06:54:11;19.30;29.00
43561;DHT22;32305;46.410;17.394;2023-02-05T06:56:38;19.40;29.00
43561;DHT22;32305;46.410;17.394;2023-02-05T06:59:05;19.40;29.00
43561;DHT22;32305;46.410;17.394;2023-02-05T07:01:32;19.40;28.90
43561;DHT22;32305;46.410;17.394;2023-02-05T07:04:00;19.40;28.90
43561;DHT22;32305;46.410;17.394;2023-02-05T07:06:27;19.40;29.20
43561;DHT22;32305;46.410;17.394;2023-02-05T07:08:54;19.50;28.80
43561;DHT22;32305;46.410;17.394;2023-02-05T07:11:22;19.50;28.80
43561;DHT22;32305;46.410;17.394;2023-02-05T07:13:49;19.50;28.80
43561;DHT22;32305;46.410;17.394;2023-02-05T07:16:17;19.60;28.80
43561;DHT22;32305;46.410;17.394;2023-02-05T07:18:44;19.60;28.70
43561;DHT22;32305;46.410;17.394;2023-02-05T07:21:14;19.60;28.70
43561;DHT22;32305;46.410;17.394;2023-02-05T07:23:42;19.60;28.70
43561;DHT22;32305;46.410;17.394;2023-02-05T07:26:14;19.70;28.70
43561;DHT22;32305;46.410;17.394;2023-02-05T07:28:43;19.70;28.60
43561;DHT22;32305;46.410;17.394;2023-02-05T07:31:15;19.70;28.60
43561;DHT22;32305;46.410;17.394;2023-02-05T07:33:45;19.80;28.50
43561;DHT22;32305;46.410;17.394;2023-02-05T07:36:15;19.80;28.50
43561;DHT22;32305;46.410;17.394;2023-02-05T07:38:43;19.90;28.50
43561;DHT22;32305;46.410;17.394;2023-02-05T07:41:13;19.90;28.40
43561;DHT22;32305;46.410;17.394;2023-02-05T07:43:40;19.90;28.40
43561;DHT22;32305;46.410;17.394;2023-02-05T07:46:10;19.90;28.30
43561;DHT22;32305;46.410;17.394;2023-02-05T07:48:38;20.00;28.30
43561;DHT22;32305;46.410;17.394;2023-02-05T07:51:06;20.00;28.20
43561;DHT22;32305;46.410;17.394;2023-02-05T07:53:33;20.00;28.20
43561;DHT22;32305;46.410;17.394;2023-02-05T07:56:03;20.00;28.20
43561;DHT22;32305;46.410;17.394;2023-02-05T07:58:30;20.00;28.20
43561;DHT22;32305;46.410;17.394;2023-02-05T08:01:01;20.10;28.20
43561;DHT22;32305;46.410;17.394;2023-02-05T08:03:29;20.10;28.10
43561;DHT22;32305;46.410;17.394;2023-02-05T08:05:57;20.10;28.10
43561;DHT22;32305;46.410;17.394;2023-02-05T08:08:24;20.20;28.10
43561;DHT22;32305;46.410;17.394;2023-02-05T08:11:01;20.20;28.10
43561;DHT22;32305;46.410;17.394;2023-02-05T08:13:29;20.20;28.10
43561;DHT22;32305;46.410;17.394;2023-02-05T08:15:56;20.20;28.10
43561;DHT22;32305;46.410;17.394;2023-02-05T08:18:24;20.20;28.10
43561;DHT22;32305;46.410;17.394;2023-02-05T08:20:52;20.20;28.00
43561;DHT22;32305;46.410;17.394;2023-02-05T08:23:20;20.30;28.00
43561;DHT22;32305;46.410;17.394;2023-02-05T08:25:47;20.30;28.00
43561;DHT22;32305;46.410;17.394;2023-02-05T08:28:14;20.30;28.00
43561;DHT22;32305;46.410;17.394;2023-02-05T08:30:41;20.40;28.00
43561;DHT22;32305;46.410;17.394;2023-02-05T08:33:08;20.40;28.00
43561;DHT22;32305;46.410;17.394;2023-02-05T08:35:36;20.40;28.00
43561;DHT22;32305;46.410;17.394;2023-02-05T08:38:03;20.50;28.00
43561;DHT22;32305;46.410;17.394;2023-02-05T08:40:30;20.50;27.90
43561;DHT22;32305;46.410;17.394;2023-02-05T08:42:58;20.50;27.90
43561;DHT22;32305;46.410;17.394;2023-02-05T08:45:26;20.60;27.90
43561;DHT22;32305;46.410;17.394;2023-02-05T08:47:54;20.60;27.80
43561;DHT22;32305;46.410;17.394;2023-02-05T08:50:21;20.60;27.80
43561;DHT22;32305;46.410;17.394;2023-02-05T08:52:48;20.70;28.10
43561;DHT22;32305;46.410;17.394;2023-02-05T08:55:16;20.70;27.70
43561;DHT22;32305;46.410;17.394;2023-02-05T08:57:46;20.80;27.70
43561;DHT22;32305;46.410;17.394;2023-02-05T09:00:13;20.80;27.60
43561;DHT22;32305;46.410;17.394;2023-02-05T09:02:41;20.90;27.60
43561;DHT22;32305;46.410;17.394;2023-02-05T09:05:09;20.90;27.50
43561;DHT22;32305;46.410;17.394;2023-02-05T09:07:38;21.00;27.60
43561;DHT22;32305;46.410;17.394;2023-02-05T09:10:10;21.00;27.50
43561;DHT22;32305;46.410;17.394;2023-02-05T09:12:38;21.00;27.40
43561;DHT22;32305;46.410;17.394;2023-02-05T09:15:06;21.10;27.40
43561;DHT22;32305;46.410;17.394;2023-02-05T09:17:33;21.10;27.40
43561;DHT22;32305;46.410;17.394;2023-02-05T09:20:00;21.10;27.30
43561;DHT22;32305;46.410;17.394;2023-02-05T09:22:27;21.20;27.30
43561;DHT22;32305;46.410;17.394;2023-02-05T09:24:55;21.20;27.30
43561;DHT22;32305;46.410;17.394;2023-02-05T09:27:22;21.20;27.20
43561;DHT22;32305;46.410;17.394;2023-02-05T09:29:49;21.20;27.10
43561;DHT22;32305;46.410;17.394;2023-02-05T09:32:16;21.20;27.10
43561;DHT22;32305;46.410;17.394;2023-02-05T09:34:43;21.30;27.10
43561;DHT22;32305;46.410;17.394;2023-02-05T09:37:10;21.30;27.10
43561;DHT22;32305;46.410;17.394;2023-02-05T09:39:37;21.30;27.10
43561;DHT22;32305;46.410;17.394;2023-02-05T09:42:33;21.30;27.00
43561;DHT22;32305;46.410;17.394;2023-02-05T09:45:17;21.30;27.00
43561;DHT22;32305;46.410;17.394;2023-02-05T09:48:01;21.30;27.00
43561;DHT22;32305;46.410;17.394;2023-02-05T09:50:31;21.40;26.90
43561;DHT22;32305;46.410;17.394;2023-02-05T09:53:03;21.40;26.90
43561;DHT22;32305;46.410;17.394;2023-02-05T09:55:38;21.40;26.90
43561;DHT22;32305;46.410;17.394;2023-02-05T09:58:18;21.50;26.90
43561;DHT22;32305;46.410;17.394;2023-02-05T10:01:01;21.50;26.90
43561;DHT22;32305;46.410;17.394;2023-02-05T10:03:48;21.60;26.80
43561;DHT22;32305;46.410;17.394;2023-02-05T10:06:37;21.60;26.80
43561;DHT22;32305;46.410;17.394;2023-02-05T10:12:34;21.60;26.70
43561;DHT22;32305;46.410;17.394;2023-02-05T10:15:31;21.60;26.70
43561;DHT22;32305;46.410;17.394;2023-02-05T10:18:17;21.60;26.70
43561;DHT22;32305;46.410;17.394;2023-02-05T10:21:05;21.70;26.70
43561;DHT22;32305;46.410;17.394;2023-02-05T10:24:18;21.70;26.70
43561;DHT22;32305;46.410;17.394;2023-02-05T10:26:50;21.70;26.60
43561;DHT22;32305;46.410;17.394;2023-02-05T10:29:38;21.70;26.60
43561;DHT22;32305;46.410;17.394;2023-02-05T10:32:20;21.70;26.60
43561;DHT22;32305;46.410;17.394;2023-02-05T10:34:54;21.80;27.00
43561;DHT22;32305;46.410;17.394;2023-02-05T10:37:37;21.80;26.50
43561;DHT22;32305;46.410;17.394;2023-02-05T10:40:16;21.80;26.50
43561;DHT22;32305;46.410;17.394;2023-02-05T10:42:50;21.80;26.50
43561;DHT22;32305;46.410;17.394;2023-02-05T10:45:25;21.80;26.50
43561;DHT22;32305;46.410;17.394;2023-02-05T10:51:09;21.90;26.40
43561;DHT22;32305;46.410;17.394;2023-02-05T10:53:39;21.90;26.40
43561;DHT22;32305;46.410;17.394;2023-02-05T10:56:09;21.90;26.40
43561;DHT22;32305;46.410;17.394;2023-02-05T10:58:45;21.90;26.30
43561;DHT22;32305;46.410;17.394;2023-02-05T11:01:23;21.90;26.30
43561;DHT22;32305;46.410;17.394;2023-02-05T11:03:55;21.90;26.30
43561;DHT22;32305;46.410;17.394;2023-02-05T11:06:26;21.90;26.30
43561;DHT22;32305;46.410;17.394;2023-02-05T11:08:53;21.90;26.30
43561;DHT22;32305;46.410;17.394;2023-02-05T11:11:24;21.90;26.70
43561;DHT22;32305;46.410;17.394;2023-02-05T11:14:00;21.90;26.30
43561;DHT22;32305;46.410;17.394;2023-02-05T11:16:42;21.90;26.30
43561;DHT22;32305;46.410;17.394;2023-02-05T11:19:26;22.00;26.30
43561;DHT22;32305;46.410;17.394;2023-02-05T11:21:57;22.00;26.20
43561;DHT22;32305;46.410;17.394;2023-02-05T11:24:34;22.00;26.20
43561;DHT22;32305;46.410;17.394;2023-02-05T11:27:31;22.00;26.10
43561;DHT22;32305;46.410;17.394;2023-02-05T11:30:28;22.00;26.10
43561;DHT22;32305;46.410;17.394;2023-02-05T11:33:27;22.00;26.00
43561;DHT22;32305;46.410;17.394;2023-02-05T11:36:03;22.00;26.10
43561;DHT22;32305;46.410;17.394;2023-02-05T11:38:46;22.00;26.10
43561;DHT22;32305;46.410;17.394;2023-02-05T11:41:26;22.00;26.10
43561;DHT22;32305;46.410;17.394;2023-02-05T11:43:55;22.00;26.10
43561;DHT22;32305;46.410;17.394;2023-02-05T11:46:25;22.00;26.00
43561;DHT22;32305;46.410;17.394;2023-02-05T11:49:02;22.00;26.00
43561;DHT22;32305;46.410;17.394;2023-02-05T11:51:42;22.00;26.00
43561;DHT22;32305;46.410;17.394;2023-02-05T11:54:24;22.00;25.90
43561;DHT22;32305;46.410;17.394;2023-02-05T11:57:03;22.00;25.90
43561;DHT22;32305;46.410;17.394;2023-02-05T11:59:32;22.00;25.90
43561;DHT22;32305;46.410;17.394;2023-02-05T12:02:26;22.00;25.90
43561;DHT22;32305;46.410;17.394;2023-02-05T12:05:01;22.00;25.90
43561;DHT22;32305;46.410;17.394;2023-02-05T12:07:36;22.00;25.90
43561;DHT22;32305;46.410;17.394;2023-02-05T12:10:13;22.00;25.90
43561;DHT22;32305;46.410;17.394;2023-02-05T12:12:52;22.00;25.90
43561;DHT22;32305;46.410;17.394;2023-02-05T12:15:26;22.00;25.90
43561;DHT22;32305;46.410;17.394;2023-02-05T12:21:29;22.00;25.90
43561;DHT22;32305;46.410;17.394;2023-02-05T12:24:18;22.00;25.90
43561;DHT22;32305;46.410;17.394;2023-02-05T12:26:50;22.00;25.80
43561;DHT22;32305;46.410;17.394;2023-02-05T12:32:44;22.00;25.80
43561;DHT22;32305;46.410;17.394;2023-02-05T12:35:45;22.00;25.80
43561;DHT22;32305;46.410;17.394;2023-02-05T12:38:35;22.10;25.80
43561;DHT22;32305;46.410;17.394;2023-02-05T12:41:28;22.10;25.80
43561;DHT22;32305;46.410;17.394;2023-02-05T12:47:21;22.10;25.80
43561;DHT22;32305;46.410;17.394;2023-02-05T12:49:58;22.10;25.70
43561;DHT22;32305;46.410;17.394;2023-02-05T12:52:44;22.10;25.70
43561;DHT22;32305;46.410;17.394;2023-02-05T12:55:44;22.00;25.70
43561;DHT22;32305;46.410;17.394;2023-02-05T12:58:15;22.00;25.70
43561;DHT22;32305;46.410;17.394;2023-02-05T13:00:50;22.00;25.70
43561;DHT22;32305;46.410;17.394;2023-02-05T13:03:34;22.00;25.80
43561;DHT22;32305;46.410;17.394;2023-02-05T13:06:27;22.00;25.80
43561;DHT22;32305;46.410;17.394;2023-02-05T13:09:01;22.00;25.80
43561;DHT22;32305;46.410;17.394;2023-02-05T13:11:46;22.00;25.70
43561;DHT22;32305;46.410;17.394;2023-02-05T13:14:20;22.00;25.70
43561;DHT22;32305;46.410;17.394;2023-02-05T13:17:11;22.00;25.70
43561;DHT22;32305;46.410;17.394;2023-02-05T13:19:44;22.00;25.70
43561;DHT22;32305;46.410;17.394;2023-02-05T13:25:35;21.90;25.70
43561;DHT22;32305;46.410;17.394;2023-02-05T13:28:35;21.90;25.60
43561;DHT22;32305;46.410;17.394;2023-02-05T13:31:30;22.00;25.70
43561;DHT22;32305;46.410;17.394;2023-02-05T13:34:06;22.00;26.10
43561;DHT22;32305;46.410;17.394;2023-02-05T13:42:58;21.90;25.60
43561;DHT22;32305;46.410;17.394;2023-02-05T13:49:05;21.90;25.60
43561;DHT22;32305;46.410;17.394;2023-02-05T13:54:57;21.90;25.60
43561;DHT22;32305;46.410;17.394;2023-02-05T13:58:04;21.90;25.60
43561;DHT22;32305;46.410;17.394;2023-02-05T14:00:32;21.80;25.50
43561;DHT22;32305;46.410;17.394;2023-02-05T14:03:01;21.80;25.50
43561;DHT22;32305;46.410;17.394;2023-02-05T14:05:35;21.80;25.50
43561;DHT22;32305;46.410;17.394;2023-02-05T14:08:04;21.80;25.50
43561;DHT22;32305;46.410;17.394;2023-02-05T14:10:39;21.70;25.50
43561;DHT22;32305;46.410;17.394;2023-02-05T14:13:24;21.70;25.50
43561;DHT22;32305;46.410;17.394;2023-02-05T14:15:52;21.70;25.50
43561;DHT22;32305;46.410;17.394;2023-02-05T14:18:44;21.60;25.50
43561;DHT22;32305;46.410;17.394;2023-02-05T14:24:41;21.60;25.60
43561;DHT22;32305;46.410;17.394;2023-02-05T14:30:38;21.60;25.60
43561;DHT22;32305;46.410;17.394;2023-02-05T14:33:31;21.50;25.60
43561;DHT22;32305;46.410;17.394;2023-02-05T14:36:26;21.50;25.60
43561;DHT22;32305;46.410;17.394;2023-02-05T14:39:04;21.50;25.60
43561;DHT22;32305;46.410;17.394;2023-02-05T14:41:53;21.50;25.70
43561;DHT22;32305;46.410;17.394;2023-02-05T14:44:27;21.50;25.60
43561;DHT22;32305;46.410;17.394;2023-02-05T14:47:21;21.50;25.70
43561;DHT22;32305;46.410;17.394;2023-02-05T14:50:08;21.50;25.70
43561;DHT22;32305;46.410;17.394;2023-02-05T14:52:38;21.40;25.60
43561;DHT22;32305;46.410;17.394;2023-02-05T14:55:19;21.40;25.70
43561;DHT22;32305;46.410;17.394;2023-02-05T14:58:00;21.40;25.70
43561;DHT22;32305;46.410;17.394;2023-02-05T15:00:33;21.40;25.70
43561;DHT22;32305;46.410;17.394;2023-02-05T15:03:19;21.40;25.70
43561;DHT22;32305;46.410;17.394;2023-02-05T15:05:54;21.40;25.70
43561;DHT22;32305;46.410;17.394;2023-02-05T15:08:45;21.30;25.80
43561;DHT22;32305;46.410;17.394;2023-02-05T15:11:36;21.30;26.00
43561;DHT22;32305;46.410;17.394;2023-02-05T15:14:24;21.40;26.00
43561;DHT22;32305;46.410;17.394;2023-02-05T15:17:34;21.40;26.10
43561;DHT22;32305;46.410;17.394;2023-02-05T15:20:18;21.40;26.10
43561;DHT22;32305;46.410;17.394;2023-02-05T15:23:00;21.40;26.20
43561;DHT22;32305;46.410;17.394;2023-02-05T15:28:28;21.30;26.20
43561;DHT22;32305;46.410;17.394;2023-02-05T15:31:11;21.30;26.30
43561;DHT22;32305;46.410;17.394;2023-02-05T15:37:02;21.20;26.40
43561;DHT22;32305;46.410;17.394;2023-02-05T15:39:55;21.20;26.40
43561;DHT22;32305;46.410;17.394;2023-02-05T15:42:40;21.10;26.50
43561;DHT22;32305;46.410;17.394;2023-02-05T15:45:31;21.10;26.50
43561;DHT22;32305;46.410;17.394;2023-02-05T15:48:15;21.10;26.60
43561;DHT22;32305;46.410;17.394;2023-02-05T15:50:55;21.00;26.60
43561;DHT22;32305;46.410;17.394;2023-02-05T15:53:44;21.00;26.60
43561;DHT22;32305;46.410;17.394;2023-02-05T15:56:25;21.00;26.70
43561;DHT22;32305;46.410;17.394;2023-02-05T15:58:58;20.90;26.70
43561;DHT22;32305;46.410;17.394;2023-02-05T16:01:39;20.90;26.70
43561;DHT22;32305;46.410;17.394;2023-02-05T16:04:35;20.90;26.80
43561;DHT22;32305;46.410;17.394;2023-02-05T16:07:20;20.80;26.80
43561;DHT22;32305;46.410;17.394;2023-02-05T16:09:50;20.80;26.90
43561;DHT22;32305;46.410;17.394;2023-02-05T16:12:19;20.80;27.00
43561;DHT22;32305;46.410;17.394;2023-02-05T16:14:58;20.70;27.00
43561;DHT22;32305;46.410;17.394;2023-02-05T16:17:31;20.70;27.00
43561;DHT22;32305;46.410;17.394;2023-02-05T16:20:25;20.70;27.10
43561;DHT22;32305;46.410;17.394;2023-02-05T16:23:07;20.70;27.20
43561;DHT22;32305;46.410;17.394;2023-02-05T16:25:44;20.60;27.20
43561;DHT22;32305;46.410;17.394;2023-02-05T16:28:18;20.60;27.20
43561;DHT22;32305;46.410;17.394;2023-02-05T16:30:48;20.60;27.30
43561;DHT22;32305;46.410;17.394;2023-02-05T16:33:28;20.60;27.30
43561;DHT22;32305;46.410;17.394;2023-02-05T16:35:58;20.50;27.40
43561;DHT22;32305;46.410;17.394;2023-02-05T16:38:26;20.50;27.40
43561;DHT22;32305;46.410;17.394;2023-02-05T16:41:07;20.50;27.40
43561;DHT22;32305;46.410;17.394;2023-02-05T16:43:43;20.40;27.40
43561;DHT22;32305;46.410;17.394;2023-02-05T16:46:21;20.50;27.40